createdAt,value
2017-09-13T00:00:02.499Z,12.80
2017-09-13T00:02:30.073Z,12.80
2017-09-13T00:04:57.804Z,12.80
2017-09-13T00:07:25.355Z,12.80
2017-09-13T00:09:52.994Z,12.70
2017-09-13T00:12:21.344Z,12.70
2017-09-13T00:14:49.055Z,12.70
2017-09-13T00:17:16.647Z,12.70
2017-09-13T00:19:44.267Z,12.70
2017-09-13T00:22:11.817Z,12.70
2017-09-13T00:24:39.435Z,12.70
2017-09-13T00:27:07.003Z,12.70
2017-09-13T00:29:34.623Z,12.70
2017-09-13T00:32:02.204Z,12.70
2017-09-13T00:34:30.182Z,12.70
2017-09-13T00:36:57.700Z,12.60
2017-09-13T00:39:25.301Z,12.60
2017-09-13T00:41:52.909Z,12.60
2017-09-13T00:44:20.451Z,12.60
2017-09-13T00:46:49.095Z,12.60
2017-09-13T00:49:16.675Z,12.60
2017-09-13T00:51:44.274Z,12.60
2017-09-13T00:54:12.292Z,12.70
2017-09-13T00:56:39.869Z,12.70
2017-09-13T00:59:07.447Z,12.70
2017-09-13T01:01:36.098Z,12.80
2017-09-13T01:04:03.657Z,12.80
2017-09-13T01:06:31.215Z,12.90
2017-09-13T01:08:59.118Z,12.90
2017-09-13T01:11:27.954Z,13.00
2017-09-13T01:13:55.495Z,13.00
2017-09-13T01:16:23.499Z,13.00
2017-09-13T01:18:51.088Z,13.10
2017-09-13T01:21:20.260Z,13.10
2017-09-13T01:23:48.144Z,13.10
2017-09-13T01:26:15.682Z,13.10
2017-09-13T01:28:43.242Z,13.10
2017-09-13T01:31:11.103Z,13.10
2017-09-13T01:33:38.647Z,13.10
2017-09-13T01:36:06.247Z,13.00
2017-09-13T01:38:34.301Z,13.10
2017-09-13T01:41:01.883Z,13.10
2017-09-13T01:43:29.439Z,13.10
2017-09-13T01:45:57.486Z,13.10
2017-09-13T01:48:25.072Z,13.00
2017-09-13T01:50:52.620Z,13.00
2017-09-13T01:53:20.703Z,13.00
2017-09-13T01:55:49.095Z,12.90
2017-09-13T01:58:16.643Z,12.90
2017-09-13T02:00:44.697Z,12.90
2017-09-13T02:03:12.272Z,12.90
2017-09-13T02:05:39.885Z,12.90
2017-09-13T02:08:07.891Z,12.90
2017-09-13T02:10:35.459Z,12.90
2017-09-13T02:13:03.019Z,12.90
2017-09-13T02:15:30.902Z,12.90
2017-09-13T02:17:59.214Z,12.80
2017-09-13T02:20:26.760Z,12.80
2017-09-13T02:22:54.675Z,12.90
2017-09-13T02:25:22.221Z,12.80
2017-09-13T02:27:49.794Z,12.80
2017-09-13T02:30:17.678Z,12.80
2017-09-13T02:32:45.238Z,12.80
2017-09-13T02:35:12.834Z,12.80
2017-09-13T02:37:40.845Z,12.80
2017-09-13T02:40:08.466Z,12.70
2017-09-13T02:42:36.040Z,12.70
2017-09-13T02:45:04.043Z,12.70
2017-09-13T02:47:31.630Z,12.70
2017-09-13T02:49:59.224Z,12.70
2017-09-13T02:52:27.240Z,12.70
2017-09-13T02:54:54.782Z,12.70
2017-09-13T02:57:22.347Z,12.70
2017-09-13T02:59:50.442Z,12.70
2017-09-13T03:02:18.771Z,12.70
2017-09-13T03:04:46.343Z,12.60
2017-09-13T03:07:14.220Z,12.70
2017-09-13T03:09:41.768Z,12.70
2017-09-13T03:12:09.721Z,12.70
2017-09-13T03:14:37.652Z,12.70
2017-09-13T03:17:05.964Z,12.70
2017-09-13T03:19:33.563Z,12.70
2017-09-13T03:22:01.628Z,12.70
2017-09-13T03:24:29.327Z,12.70
2017-09-13T03:26:57.676Z,12.80
2017-09-13T03:29:25.632Z,12.80
2017-09-13T03:31:53.183Z,12.80
2017-09-13T03:34:20.762Z,12.80
2017-09-13T03:36:48.822Z,12.80
2017-09-13T03:39:16.458Z,12.80
2017-09-13T03:41:44.044Z,12.80
2017-09-13T03:44:12.023Z,12.80
2017-09-13T03:46:39.580Z,12.80
2017-09-13T03:49:07.173Z,12.70
2017-09-13T03:51:36.045Z,12.80
2017-09-13T03:54:04.383Z,12.70
2017-09-13T03:56:32.018Z,12.70
2017-09-13T03:59:00.028Z,12.70
2017-09-13T04:01:27.612Z,12.70
2017-09-13T04:03:55.158Z,12.70
2017-09-13T04:06:23.257Z,12.70
2017-09-13T04:08:51.815Z,12.70
2017-09-13T04:11:19.363Z,12.70
2017-09-13T04:13:47.467Z,12.70
2017-09-13T04:16:15.092Z,12.70
2017-09-13T04:18:43.019Z,12.70
2017-09-13T04:21:11.051Z,12.70
2017-09-13T04:23:38.641Z,12.60
2017-09-13T04:26:06.191Z,12.60
2017-09-13T04:28:35.067Z,12.60
2017-09-13T04:31:02.680Z,12.60
2017-09-13T04:33:30.218Z,12.60
2017-09-13T04:35:58.265Z,12.60
2017-09-13T04:38:26.602Z,12.60
2017-09-13T04:40:54.183Z,12.60
2017-09-13T04:43:22.291Z,12.60
2017-09-13T04:45:50.655Z,12.60
2017-09-13T04:48:18.371Z,12.60
2017-09-13T04:50:46.230Z,12.70
2017-09-13T04:53:13.779Z,12.70
2017-09-13T04:55:41.363Z,12.80
2017-09-13T04:58:09.400Z,12.90
2017-09-13T05:00:36.964Z,12.90
2017-09-13T05:03:04.550Z,13.00
2017-09-13T05:05:32.476Z,13.10
2017-09-13T05:08:00.823Z,13.20
2017-09-13T05:10:28.411Z,13.20
2017-09-13T05:12:57.071Z,13.20
2017-09-13T05:15:24.666Z,13.20
2017-09-13T05:17:52.254Z,13.20
2017-09-13T05:20:20.267Z,13.20
2017-09-13T05:22:47.910Z,13.20
2017-09-13T05:25:15.515Z,13.20
2017-09-13T05:27:43.614Z,13.20
2017-09-13T05:30:11.160Z,13.20
2017-09-13T05:32:38.756Z,13.20
2017-09-13T05:35:06.619Z,13.20
2017-09-13T05:37:34.183Z,13.20
2017-09-13T05:40:01.739Z,13.30
2017-09-13T05:42:29.604Z,13.30
2017-09-13T05:44:57.154Z,13.40
2017-09-13T05:47:24.713Z,13.50
2017-09-13T05:49:52.602Z,13.70
2017-09-13T05:52:20.206Z,13.80
2017-09-13T05:54:47.892Z,13.80
2017-09-13T05:57:15.755Z,13.90
2017-09-13T05:59:43.742Z,14.00
2017-09-13T06:02:11.301Z,14.20
2017-09-13T06:04:39.414Z,14.60
2017-09-13T06:07:07.746Z,14.80
2017-09-13T06:09:35.307Z,14.80
2017-09-13T06:12:03.423Z,14.90
2017-09-13T06:14:31.741Z,15.10
2017-09-13T06:16:59.302Z,15.10
2017-09-13T06:19:27.195Z,15.00
2017-09-13T06:21:54.747Z,15.00
2017-09-13T06:24:22.308Z,14.90
2017-09-13T06:26:50.399Z,14.90
2017-09-13T06:29:17.974Z,14.90
2017-09-13T06:31:45.545Z,14.90
2017-09-13T06:34:14.439Z,14.90
2017-09-13T06:36:42.758Z,14.90
2017-09-13T06:39:10.309Z,14.90
2017-09-13T06:41:38.082Z,15.00
2017-09-13T06:44:05.667Z,15.10
2017-09-13T06:46:33.308Z,15.10
2017-09-13T06:49:00.886Z,15.10
2017-09-13T06:51:28.522Z,15.10
2017-09-13T06:53:56.103Z,15.10
2017-09-13T06:56:23.769Z,15.10
2017-09-13T06:58:51.356Z,15.10
2017-09-13T07:01:19.136Z,15.10
2017-09-13T07:03:46.710Z,15.10
2017-09-13T07:06:14.405Z,15.00
2017-09-13T07:08:41.952Z,15.00
2017-09-13T07:11:09.684Z,14.90
2017-09-13T07:13:37.255Z,14.90
2017-09-13T07:16:04.889Z,14.80
2017-09-13T07:18:33.243Z,14.80
2017-09-13T07:21:00.868Z,14.80
2017-09-13T07:23:28.410Z,14.80
2017-09-13T07:25:56.331Z,14.80
2017-09-13T07:28:24.295Z,14.80
2017-09-13T07:30:51.847Z,14.80
2017-09-13T07:33:19.500Z,14.70
2017-09-13T07:35:47.105Z,14.70
2017-09-13T07:38:14.714Z,14.70
2017-09-13T07:40:42.873Z,14.80
2017-09-13T07:43:10.468Z,14.80
2017-09-13T07:45:38.031Z,14.90
2017-09-13T07:48:06.575Z,14.90
2017-09-13T07:50:34.129Z,14.90
2017-09-13T07:53:01.760Z,14.90
2017-09-13T07:55:29.371Z,15.00
2017-09-13T07:57:56.974Z,15.00
2017-09-13T08:00:25.293Z,15.00
2017-09-13T08:02:52.899Z,15.00
2017-09-13T08:05:20.510Z,15.10
2017-09-13T08:07:48.232Z,15.20
2017-09-13T08:10:15.820Z,15.30
2017-09-13T08:12:43.467Z,15.30
2017-09-13T08:15:11.028Z,15.40
2017-09-13T08:17:39.409Z,15.40
2017-09-13T08:20:06.981Z,15.50
2017-09-13T08:22:34.609Z,15.50
2017-09-13T08:25:02.164Z,15.50
2017-09-13T08:27:29.778Z,15.50
2017-09-13T08:29:57.317Z,15.50
2017-09-13T08:32:24.947Z,15.50
2017-09-13T08:34:52.538Z,15.40
2017-09-13T08:37:20.130Z,15.40
2017-09-13T08:39:47.674Z,15.40
2017-09-13T08:42:15.682Z,15.30
2017-09-13T08:44:43.251Z,15.30
2017-09-13T08:47:10.829Z,15.20
2017-09-13T08:49:39.180Z,15.10
2017-09-13T08:52:06.738Z,15.10
2017-09-13T08:54:34.340Z,15.10
2017-09-13T08:57:02.644Z,15.10
2017-09-13T08:59:30.254Z,15.00
2017-09-13T09:01:58.016Z,14.90
2017-09-13T09:04:25.727Z,14.90
2017-09-13T09:06:53.295Z,14.90
2017-09-13T09:09:20.990Z,15.00
2017-09-13T09:11:48.548Z,15.10
2017-09-13T09:14:16.480Z,15.30
2017-09-13T09:16:44.133Z,15.40
2017-09-13T09:19:11.720Z,15.50
2017-09-13T09:21:39.258Z,15.70
2017-09-13T09:24:06.859Z,15.90
2017-09-13T09:26:34.458Z,16.00
2017-09-13T09:29:02.271Z,16.20
2017-09-13T09:31:29.820Z,16.30
2017-09-13T09:33:57.436Z,16.50
2017-09-13T09:36:25.754Z,17.00
2017-09-13T09:38:53.357Z,17.00
2017-09-13T09:41:21.687Z,17.20
2017-09-13T09:43:49.516Z,17.10
2017-09-13T09:46:18.334Z,17.40
2017-09-13T09:48:45.994Z,17.40
2017-09-13T09:51:13.558Z,17.60
2017-09-13T09:53:41.204Z,17.60
2017-09-13T09:56:08.756Z,17.80
2017-09-13T09:58:36.332Z,17.80
2017-09-13T10:01:03.899Z,18.20
2017-09-13T10:03:31.463Z,18.30
2017-09-13T10:05:59.133Z,18.50
2017-09-13T10:08:26.718Z,18.70
2017-09-13T10:10:55.153Z,19.10
2017-09-13T10:13:22.725Z,19.10
2017-09-13T10:15:50.320Z,19.30
2017-09-13T10:18:17.891Z,19.40
2017-09-13T10:20:45.571Z,19.40
2017-09-13T10:23:13.141Z,19.50
2017-09-13T10:25:40.735Z,19.60
2017-09-13T10:28:08.312Z,19.60
2017-09-13T10:30:35.925Z,19.70
2017-09-13T10:33:03.479Z,19.70
2017-09-13T10:35:31.087Z,19.60
2017-09-13T10:37:58.667Z,19.60
2017-09-13T10:40:27.035Z,19.40
2017-09-13T10:42:54.758Z,19.40
2017-09-13T10:45:22.354Z,19.50
2017-09-13T10:47:49.914Z,19.40
2017-09-13T10:50:18.342Z,19.30
2017-09-13T10:52:45.893Z,19.30
2017-09-13T10:55:14.298Z,19.10
2017-09-13T10:57:41.887Z,19.10
2017-09-13T11:00:09.491Z,19.00
2017-09-13T11:02:37.808Z,18.80
2017-09-13T11:05:05.573Z,18.70
2017-09-13T11:07:33.204Z,18.80
2017-09-13T11:10:00.804Z,18.80
2017-09-13T11:12:28.367Z,19.00
2017-09-13T11:14:55.982Z,19.00
2017-09-13T11:17:23.866Z,19.20
2017-09-13T11:19:51.428Z,19.30
2017-09-13T11:22:19.019Z,19.40
2017-09-13T11:24:46.617Z,19.30
2017-09-13T11:27:14.244Z,19.30
2017-09-13T11:29:41.963Z,19.20
2017-09-13T11:32:09.639Z,19.30
2017-09-13T11:34:37.253Z,19.30
2017-09-13T11:37:04.845Z,19.30
2017-09-13T11:39:32.423Z,19.30
2017-09-13T11:42:00.007Z,19.30
2017-09-13T11:44:27.599Z,19.30
2017-09-13T11:46:55.972Z,19.20
2017-09-13T11:49:23.528Z,19.20
2017-09-13T11:51:51.910Z,19.30
2017-09-13T11:54:19.528Z,19.30
2017-09-13T11:56:47.139Z,19.30
2017-09-13T11:59:15.471Z,19.50
2017-09-13T12:01:43.140Z,19.40
2017-09-13T12:04:10.707Z,19.40
2017-09-13T12:06:38.334Z,19.40
2017-09-13T12:09:05.926Z,19.30
2017-09-13T12:11:35.051Z,19.10
2017-09-13T12:14:02.645Z,19.10
2017-09-13T12:16:30.235Z,19.20
2017-09-13T12:18:57.796Z,19.10
2017-09-13T12:21:25.559Z,19.10
2017-09-13T12:23:53.141Z,19.20
2017-09-13T12:26:20.855Z,19.20
2017-09-13T12:28:48.442Z,19.20
2017-09-13T12:31:16.055Z,19.20
2017-09-13T12:33:43.606Z,19.30
2017-09-13T12:36:11.535Z,19.30
2017-09-13T12:38:39.103Z,19.30
2017-09-13T12:41:06.732Z,19.30
2017-09-13T12:43:34.363Z,19.20
2017-09-13T12:46:01.924Z,19.30
2017-09-13T12:48:29.540Z,19.50
2017-09-13T12:50:57.097Z,19.40
2017-09-13T12:53:24.698Z,19.50
2017-09-13T12:55:52.240Z,19.50
2017-09-13T12:58:20.599Z,19.70
2017-09-13T13:00:48.158Z,19.70
2017-09-13T13:03:16.071Z,19.70
2017-09-13T13:05:43.678Z,19.80
2017-09-13T13:08:11.348Z,19.70
2017-09-13T13:10:38.939Z,19.70
2017-09-13T13:13:06.624Z,19.60
2017-09-13T13:15:34.232Z,19.50
2017-09-13T13:18:01.883Z,19.50
2017-09-13T13:20:29.488Z,19.50
2017-09-13T13:22:57.087Z,19.40
2017-09-13T13:25:24.648Z,19.40
2017-09-13T13:27:52.274Z,19.40
2017-09-13T13:30:20.606Z,19.30
2017-09-13T13:32:48.237Z,19.30
2017-09-13T13:35:15.807Z,19.30
2017-09-13T13:37:43.671Z,19.30
2017-09-13T13:40:11.244Z,19.30
2017-09-13T13:42:38.919Z,19.40
2017-09-13T13:45:06.547Z,19.50
2017-09-13T13:47:34.172Z,19.70
2017-09-13T13:50:02.496Z,20.00
2017-09-13T13:52:30.474Z,20.00
2017-09-13T13:54:58.099Z,20.10
2017-09-13T13:57:25.659Z,20.10
2017-09-13T13:59:53.304Z,20.20
2017-09-13T14:02:21.667Z,20.20
2017-09-13T14:04:50.812Z,20.20
2017-09-13T14:07:18.339Z,20.20
2017-09-13T14:09:46.719Z,20.20
2017-09-13T14:12:14.317Z,20.20
2017-09-13T14:14:41.922Z,20.30
2017-09-13T14:17:10.281Z,20.40
2017-09-13T14:19:38.094Z,20.40
2017-09-13T14:22:05.659Z,20.40
2017-09-13T14:24:33.255Z,20.30
2017-09-13T14:27:00.814Z,20.30
2017-09-13T14:29:28.430Z,20.30
2017-09-13T14:31:55.988Z,20.40
2017-09-13T14:34:24.373Z,20.50
2017-09-13T14:36:52.026Z,20.50
2017-09-13T14:39:19.669Z,20.50
2017-09-13T14:41:47.230Z,20.40
2017-09-13T14:44:15.762Z,20.40
2017-09-13T14:46:43.324Z,20.40
2017-09-13T14:49:10.966Z,20.30
2017-09-13T14:51:38.521Z,20.20
2017-09-13T14:54:06.128Z,20.20
2017-09-13T14:56:33.731Z,20.10
2017-09-13T14:59:01.325Z,20.00
2017-09-13T15:01:28.876Z,20.00
2017-09-13T15:03:56.484Z,19.90
2017-09-13T15:06:24.043Z,19.90
2017-09-13T15:08:52.432Z,19.80
2017-09-13T15:11:20.051Z,19.80
2017-09-13T15:13:47.633Z,19.80
2017-09-13T15:16:16.074Z,19.70
2017-09-13T15:18:43.620Z,19.70
2017-09-13T15:21:11.220Z,19.60
2017-09-13T15:23:39.645Z,19.60
2017-09-13T15:26:07.238Z,19.60
2017-09-13T15:28:34.793Z,19.50
2017-09-13T15:31:02.400Z,19.40
2017-09-13T15:33:29.972Z,19.30
2017-09-13T15:35:58.343Z,19.10
2017-09-13T15:38:25.938Z,19.10
2017-09-13T15:40:53.581Z,19.00
2017-09-13T15:43:21.927Z,19.00
2017-09-13T15:45:49.653Z,19.00
2017-09-13T15:48:17.333Z,18.90
2017-09-13T15:50:44.966Z,18.90
2017-09-13T15:53:12.846Z,18.90
2017-09-13T15:55:40.512Z,19.00
2017-09-13T15:58:08.101Z,19.00
2017-09-13T16:00:35.729Z,19.00
2017-09-13T16:03:03.297Z,19.00
2017-09-13T16:05:30.919Z,19.00
2017-09-13T16:07:58.676Z,19.00
2017-09-13T16:10:27.043Z,19.00
2017-09-13T16:12:54.619Z,19.00
2017-09-13T16:15:22.978Z,19.00
2017-09-13T16:17:50.537Z,18.90
2017-09-13T16:20:18.254Z,19.00
2017-09-13T16:22:46.015Z,19.00
2017-09-13T16:25:13.664Z,18.90
2017-09-13T16:27:41.237Z,19.00
2017-09-13T16:30:08.802Z,18.90
2017-09-13T16:32:36.405Z,18.80
2017-09-13T16:35:03.965Z,18.70
2017-09-13T16:37:32.340Z,18.50
2017-09-13T16:39:59.940Z,18.50
2017-09-13T16:42:28.231Z,18.50
2017-09-13T16:44:55.869Z,18.30
2017-09-13T16:47:24.290Z,18.20
2017-09-13T16:49:51.842Z,18.20
2017-09-13T16:52:19.503Z,18.20
2017-09-13T16:54:47.110Z,18.10
2017-09-13T16:57:14.732Z,18.00
2017-09-13T16:59:42.287Z,17.90
2017-09-13T17:02:09.888Z,17.90
2017-09-13T17:04:38.236Z,17.80
2017-09-13T17:07:05.840Z,17.80
2017-09-13T17:09:34.244Z,17.70
2017-09-13T17:12:01.945Z,17.70
2017-09-13T17:14:29.495Z,17.60
2017-09-13T17:16:57.152Z,17.60
2017-09-13T17:19:24.726Z,17.50
2017-09-13T17:21:52.368Z,17.50
2017-09-13T17:24:19.969Z,17.40
2017-09-13T17:26:47.572Z,17.40
2017-09-13T17:29:15.210Z,17.40
2017-09-13T17:31:43.578Z,17.30
2017-09-13T17:34:12.838Z,17.30
2017-09-13T17:36:40.436Z,17.30
2017-09-13T17:39:08.764Z,17.30
2017-09-13T17:41:36.375Z,17.20
2017-09-13T17:44:03.967Z,17.30
2017-09-13T17:46:31.897Z,17.30
2017-09-13T17:48:59.496Z,17.20
2017-09-13T17:51:27.103Z,17.20
2017-09-13T17:53:54.749Z,17.20
2017-09-13T17:56:22.494Z,17.20
2017-09-13T17:58:50.118Z,17.20
2017-09-13T18:01:17.675Z,17.20
2017-09-13T18:03:46.331Z,17.10
2017-09-13T18:06:13.898Z,17.10
2017-09-13T18:08:41.531Z,17.10
2017-09-13T18:11:09.127Z,17.10
2017-09-13T18:13:37.512Z,17.10
2017-09-13T18:16:05.127Z,17.00
2017-09-13T18:18:32.775Z,17.00
2017-09-13T18:21:00.347Z,17.00
2017-09-13T18:23:27.956Z,16.90
2017-09-13T18:25:55.528Z,16.90
2017-09-13T18:28:23.908Z,16.90
2017-09-13T18:30:51.511Z,16.90
2017-09-13T18:33:20.022Z,16.90
2017-09-13T18:35:47.860Z,16.80
2017-09-13T18:38:16.235Z,16.80
2017-09-13T18:40:43.828Z,16.80
2017-09-13T18:43:11.495Z,16.80
2017-09-13T18:45:39.073Z,16.80
2017-09-13T18:48:06.713Z,16.70
2017-09-13T18:50:34.328Z,16.80
2017-09-13T18:53:01.950Z,16.70
2017-09-13T18:55:29.512Z,16.70
2017-09-13T18:57:57.872Z,16.70
2017-09-13T19:00:26.927Z,16.70
2017-09-13T19:02:54.478Z,16.70
2017-09-13T19:05:22.298Z,16.70
2017-09-13T19:07:49.937Z,16.70
2017-09-13T19:10:17.705Z,16.60
2017-09-13T19:12:45.324Z,16.60
2017-09-13T19:15:13.015Z,16.60
2017-09-13T19:17:40.619Z,16.60
2017-09-13T19:20:08.263Z,16.60
2017-09-13T19:22:35.859Z,16.60
2017-09-13T19:25:03.479Z,16.60
2017-09-13T19:27:31.067Z,16.60
2017-09-13T19:29:58.685Z,16.50
2017-09-13T19:32:26.345Z,16.50
2017-09-13T19:34:53.984Z,16.50
2017-09-13T19:37:21.578Z,16.50
2017-09-13T19:39:49.266Z,16.50
2017-09-13T19:42:17.628Z,16.50
2017-09-13T19:44:46.027Z,16.60
2017-09-13T19:47:14.382Z,16.60
2017-09-13T19:49:42.020Z,16.60
2017-09-13T19:52:09.581Z,16.70
2017-09-13T19:54:37.173Z,16.70
2017-09-13T19:57:04.951Z,16.80
2017-09-13T19:59:32.567Z,16.80
2017-09-13T20:02:00.148Z,16.80
2017-09-13T20:04:27.761Z,16.80
2017-09-13T20:06:55.340Z,16.90
2017-09-13T20:09:22.939Z,16.90
2017-09-13T20:11:50.512Z,16.90
2017-09-13T20:14:18.867Z,17.00
2017-09-13T20:16:46.427Z,17.00
2017-09-13T20:19:14.744Z,17.00
2017-09-13T20:21:42.364Z,17.00
2017-09-13T20:24:10.966Z,17.00
2017-09-13T20:26:38.569Z,17.00
2017-09-13T20:29:06.329Z,17.00
2017-09-13T20:31:34.130Z,17.00
2017-09-13T20:34:01.844Z,17.00
2017-09-13T20:36:29.454Z,17.00
2017-09-13T20:38:57.190Z,17.00
2017-09-13T20:41:24.779Z,17.00
2017-09-13T20:43:52.326Z,17.00
2017-09-13T20:46:20.082Z,17.00
2017-09-13T20:48:48.233Z,17.00
2017-09-13T20:51:16.011Z,17.00
2017-09-13T20:53:43.587Z,17.00
2017-09-13T20:56:11.182Z,17.00
2017-09-13T20:58:38.730Z,17.00
2017-09-13T21:01:07.119Z,16.90
2017-09-13T21:03:34.684Z,16.90
2017-09-13T21:06:03.042Z,16.90
2017-09-13T21:08:30.617Z,16.90
2017-09-13T21:10:59.036Z,16.90
2017-09-13T21:13:26.697Z,16.90
2017-09-13T21:15:54.499Z,16.90
2017-09-13T21:18:22.100Z,16.90
2017-09-13T21:20:50.459Z,16.80
2017-09-13T21:23:18.034Z,16.90
2017-09-13T21:25:45.643Z,16.80
2017-09-13T21:28:13.207Z,16.80
2017-09-13T21:30:40.840Z,16.80
2017-09-13T21:33:08.495Z,16.80
2017-09-13T21:35:36.603Z,16.80
2017-09-13T21:38:05.674Z,16.70
2017-09-13T21:40:33.317Z,16.70
2017-09-13T21:43:01.901Z,16.70
2017-09-13T21:45:29.460Z,16.70
2017-09-13T21:47:57.750Z,16.70
2017-09-13T21:50:25.327Z,16.60
2017-09-13T21:52:52.957Z,16.60
2017-09-13T21:55:20.726Z,16.60
2017-09-13T21:57:48.330Z,16.50
2017-09-13T22:00:15.883Z,16.60
2017-09-13T22:02:43.494Z,16.50
2017-09-13T22:05:11.100Z,16.50
2017-09-13T22:07:38.719Z,16.50
2017-09-13T22:10:06.536Z,16.50
2017-09-13T22:12:34.151Z,16.50
2017-09-13T22:15:01.711Z,16.50
2017-09-13T22:17:30.119Z,16.50
2017-09-13T22:19:57.662Z,16.50
2017-09-13T22:22:25.297Z,16.50
2017-09-13T22:24:52.901Z,16.50
2017-09-13T22:27:20.529Z,16.50
2017-09-13T22:29:48.109Z,16.50
2017-09-13T22:32:15.758Z,16.40
2017-09-13T22:34:43.645Z,16.40
2017-09-13T22:37:11.240Z,16.40
2017-09-13T22:39:39.565Z,16.40
2017-09-13T22:42:07.219Z,16.40
2017-09-13T22:44:34.833Z,16.40
2017-09-13T22:47:02.647Z,16.40
2017-09-13T22:49:30.264Z,16.40
2017-09-13T22:51:57.948Z,16.40
2017-09-13T22:54:26.362Z,16.30
2017-09-13T22:56:53.920Z,16.30
2017-09-13T22:59:21.516Z,16.30
2017-09-13T23:01:49.832Z,16.20
2017-09-13T23:04:17.576Z,16.10
2017-09-13T23:06:45.139Z,16.10
2017-09-13T23:09:12.740Z,16.10
2017-09-13T23:11:40.295Z,16.00
2017-09-13T23:14:07.894Z,16.00
2017-09-13T23:16:36.223Z,15.80
2017-09-13T23:19:03.818Z,15.80
2017-09-13T23:21:31.375Z,15.70
2017-09-13T23:23:58.996Z,15.60
2017-09-13T23:26:26.558Z,15.40
2017-09-13T23:28:54.130Z,15.40
2017-09-13T23:31:21.675Z,15.30
2017-09-13T23:33:49.267Z,15.30
2017-09-13T23:36:18.322Z,15.20
2017-09-13T23:38:45.920Z,15.20
2017-09-13T23:41:13.484Z,15.20
2017-09-13T23:43:42.735Z,15.10
2017-09-13T23:46:10.262Z,15.10
2017-09-13T23:48:37.858Z,15.10
2017-09-13T23:51:05.434Z,15.10
2017-09-13T23:53:33.030Z,15.10
2017-09-13T23:56:01.343Z,15.20
2017-09-13T23:58:28.945Z,15.10
